United Spirit — ELYB2 — position and weather

sailwx.info

Track history (hours):
 
Tides and Currents Weather Stations Pressure Air Temp Water Temp Dewpoint Dewpoint Depression Visibility Wind Speed Wind Dir Waves Ship Positions

United Spirit

Last reported at 2015-May-23 12:33 UTC. Time now 2015-May-23 13:24 UTC.
Position N 34°27' E 135°02'.

Type: Cargo ship. MMSI: 636011280.

Date/timePositionNaut miles runAvg speedWind from/ knotsBaromVisibWave heightAir tempDewpointWater temp
2015-May-23 12:33N 34°27' E 135°02'9 9.3
2015-May-23 11:33N 34°36' E 135°02'1313.0
2015-May-23 10:33N 34°32' E 134°47'201 7.4
2015-May-22 07:25N 34°03' E 130°47'1411.2
2015-May-22 06:09N 34°16' E 130°40'31 1.9
2015-May-21 13:30N 34°43' E 130°19'1 0.9
2015-May-21 12:26N 34°43' E 130°18'1 0.8
2015-May-21 11:32N 34°43' E 130°17'8 4.2
2015-May-21 09:33N 34°48' E 130°09'  
2015-May-13 21:23N 34°04' E 130°47'  
Track history (hours):
 
Tides and Currents Weather Stations Pressure Air Temp Water Temp Dewpoint Dewpoint Depression Visibility Wind Speed Wind Dir Waves Ship Positions

United Spirit

Last reported at 2015-May-23 12:33 UTC. Time now 2015-May-23 13:24 UTC.
Position N 34°27' E 135°02'.

Type: Cargo ship. MMSI: 636011280.

Date/timePositionNaut miles runAvg speedWind from/ knotsBaromVisibWave heightAir tempDewpointWater temp
2015-May-23 12:33N 34°27' E 135°02'9 9.3
2015-May-23 11:33N 34°36' E 135°02'1313.0
2015-May-23 10:33N 34°32' E 134°47'201 7.4
2015-May-22 07:25N 34°03' E 130°47'1411.2
2015-May-22 06:09N 34°16' E 130°40'31 1.9
2015-May-21 13:30N 34°43' E 130°19'1 0.9
2015-May-21 12:26N 34°43' E 130°18'1 0.8
2015-May-21 11:32N 34°43' E 130°17'8 4.2
2015-May-21 09:33N 34°48' E 130°09'  
2015-May-13 21:23N 34°04' E 130°47'  

Dump ship's entire track history